createdAt,value
2018-05-17T00:02:12.094Z,86.10
2018-05-17T00:04:39.763Z,86.10
2018-05-17T00:07:07.471Z,86.30
2018-05-17T00:09:35.094Z,86.90
2018-05-17T00:12:02.890Z,86.20
2018-05-17T00:14:30.575Z,86.20
2018-05-17T00:16:58.294Z,86.40
2018-05-17T00:19:27.137Z,86.60
2018-05-17T00:21:55.479Z,87.00
2018-05-17T00:24:24.066Z,87.80
2018-05-17T00:26:53.231Z,88.20
2018-05-17T00:29:22.048Z,88.20
2018-05-17T00:31:50.337Z,88.20
2018-05-17T00:34:18.517Z,88.30
2018-05-17T00:36:46.173Z,88.20
2018-05-17T00:39:13.970Z,88.00
2018-05-17T00:41:41.594Z,88.20
2018-05-17T00:44:09.271Z,88.40
2018-05-17T00:46:36.863Z,88.40
2018-05-17T00:49:04.925Z,88.50
2018-05-17T00:51:34.197Z,88.30
2018-05-17T00:54:02.539Z,88.80
2018-05-17T00:56:31.937Z,88.80
2018-05-17T00:59:01.917Z,89.00
2018-05-17T01:01:30.952Z,88.80
2018-05-17T01:03:59.644Z,88.70
2018-05-17T01:06:30.266Z,88.90
2018-05-17T01:08:59.410Z,88.90
2018-05-17T01:11:27.529Z,89.00
2018-05-17T01:13:56.039Z,88.30
2018-05-17T01:16:25.327Z,88.70
2018-05-17T01:18:54.804Z,88.90
2018-05-17T01:21:24.202Z,89.10
2018-05-17T01:23:53.264Z,89.20
2018-05-17T01:26:21.742Z,89.20
2018-05-17T01:28:51.143Z,89.20
2018-05-17T01:31:21.189Z,89.00
2018-05-17T01:33:50.599Z,89.00
2018-05-17T01:36:19.701Z,88.70
2018-05-17T01:38:48.822Z,89.10
2018-05-17T01:41:18.804Z,89.20
2018-05-17T01:43:48.144Z,89.10
2018-05-17T01:46:17.845Z,89.20
2018-05-17T01:48:46.320Z,89.40
2018-05-17T01:51:13.996Z,88.70
2018-05-17T01:53:42.164Z,88.60
2018-05-17T01:56:11.579Z,88.40
2018-05-17T01:58:40.958Z,88.70
2018-05-17T02:01:09.924Z,88.70
2018-05-17T02:03:38.097Z,88.50
2018-05-17T02:06:07.310Z,88.60
2018-05-17T02:09:06.714Z,87.90
2018-05-17T02:11:35.083Z,88.50
2018-05-17T02:14:02.893Z,88.30
2018-05-17T02:16:30.539Z,88.20
2018-05-17T02:18:58.464Z,88.00
2018-05-17T02:21:27.637Z,87.80
2018-05-17T02:23:57.131Z,88.00
2018-05-17T02:26:26.112Z,88.50
2018-05-17T02:28:55.223Z,88.40
2018-05-17T02:31:23.877Z,88.50
2018-05-17T02:33:53.262Z,88.80
2018-05-17T02:36:21.611Z,87.70
2018-05-17T02:38:49.474Z,87.80
2018-05-17T02:41:17.358Z,88.30
2018-05-17T02:43:44.981Z,88.50
2018-05-17T02:46:12.582Z,89.00
2018-05-17T02:48:40.237Z,90.10
2018-05-17T02:51:07.821Z,89.90
2018-05-17T02:53:35.432Z,89.70
2018-05-17T02:56:02.993Z,90.10
2018-05-17T02:58:30.620Z,90.00
2018-05-17T03:00:58.288Z,90.30
2018-05-17T03:03:25.918Z,90.10
2018-05-17T03:05:54.293Z,90.00
2018-05-17T03:08:24.363Z,90.00
2018-05-17T03:10:54.247Z,90.20
2018-05-17T03:13:24.454Z,90.20
2018-05-17T03:15:54.115Z,90.00
2018-05-17T03:18:22.665Z,89.80
2018-05-17T03:20:51.176Z,89.80
2018-05-17T03:23:18.733Z,89.80
2018-05-17T03:25:46.787Z,90.10
2018-05-17T03:28:15.371Z,89.90
2018-05-17T03:30:45.069Z,90.00
2018-05-17T03:33:14.343Z,90.00
2018-05-17T03:35:43.513Z,89.70
2018-05-17T03:38:13.670Z,89.50
2018-05-17T03:40:42.041Z,89.50
2018-05-17T03:43:11.085Z,89.60
2018-05-17T03:45:38.695Z,89.60
2018-05-17T03:48:07.763Z,89.50
2018-05-17T03:50:37.417Z,89.40
2018-05-17T03:53:30.651Z,89.30
2018-05-17T03:55:58.280Z,89.30
2018-05-17T03:58:25.922Z,89.40
2018-05-17T04:01:05.340Z,89.00
2018-05-17T04:03:44.740Z,89.10
2018-05-17T04:06:24.177Z,89.30
2018-05-17T04:08:52.087Z,89.00
2018-05-17T04:11:20.518Z,89.00
2018-05-17T04:13:48.520Z,88.90
2018-05-17T04:16:17.127Z,88.80
2018-05-17T04:18:47.631Z,88.80
2018-05-17T04:21:15.392Z,88.50
2018-05-17T04:23:43.052Z,87.80
2018-05-17T04:26:10.738Z,87.40
2018-05-17T04:28:38.447Z,87.50
2018-05-17T04:31:06.195Z,86.90
2018-05-17T04:33:34.024Z,87.00
2018-05-17T04:36:03.891Z,86.90
2018-05-17T04:38:31.632Z,87.00
2018-05-17T04:41:00.855Z,87.00
2018-05-17T04:43:29.953Z,86.30
2018-05-17T04:45:59.731Z,86.30
2018-05-17T04:48:30.422Z,85.60
2018-05-17T04:50:59.053Z,85.60
2018-05-17T04:53:29.213Z,85.10
2018-05-17T04:55:58.916Z,84.70
2018-05-17T04:58:28.014Z,84.20
2018-05-17T05:00:57.459Z,83.50
2018-05-17T05:03:26.664Z,83.20
2018-05-17T05:05:56.293Z,83.40
2018-05-17T05:08:25.482Z,83.20
2018-05-17T05:10:54.901Z,81.70
2018-05-17T05:13:24.380Z,81.50
2018-05-17T05:15:53.526Z,80.90
2018-05-17T05:18:24.388Z,80.40
2018-05-17T05:20:54.648Z,81.60
2018-05-17T05:23:25.326Z,81.40
2018-05-17T05:25:56.655Z,82.10
2018-05-17T05:28:25.945Z,81.90
2018-05-17T05:30:55.822Z,82.00
2018-05-17T05:33:25.696Z,82.20
2018-05-17T05:35:55.333Z,82.20
2018-05-17T05:38:24.502Z,82.10
2018-05-17T05:40:53.803Z,81.10
2018-05-17T05:43:23.415Z,81.60
2018-05-17T05:45:54.218Z,82.20
2018-05-17T05:48:25.238Z,82.30
2018-05-17T05:50:54.911Z,82.30
2018-05-17T05:53:24.718Z,82.50
2018-05-17T05:55:54.090Z,81.80
2018-05-17T05:58:22.907Z,82.10
2018-05-17T06:06:59.111Z,81.00
2018-05-17T06:09:27.683Z,81.00
2018-05-17T06:11:56.450Z,81.00
2018-05-17T06:14:25.468Z,81.10
2018-05-17T06:16:54.187Z,80.30
2018-05-17T06:19:24.404Z,79.50
2018-05-17T06:21:55.488Z,78.70
2018-05-17T06:24:25.207Z,79.00
2018-05-17T06:29:56.953Z,76.90
2018-05-17T06:32:24.552Z,74.60
2018-05-17T06:34:52.380Z,73.10
2018-05-17T06:37:20.031Z,71.40
2018-05-17T06:39:47.610Z,69.60
2018-05-17T06:42:15.193Z,67.50
2018-05-17T06:44:42.777Z,68.90
2018-05-17T06:47:10.382Z,67.50
2018-05-17T06:49:38.112Z,68.00
2018-05-17T06:52:05.694Z,67.70
2018-05-17T06:54:33.260Z,68.30
2018-05-17T06:57:00.813Z,69.10
2018-05-17T06:59:28.770Z,68.40
2018-05-17T07:01:57.101Z,67.90
2018-05-17T07:04:24.690Z,68.00
2018-05-17T07:06:52.519Z,66.70
2018-05-17T07:09:20.047Z,66.90
2018-05-17T07:11:47.629Z,67.20
2018-05-17T07:14:15.208Z,65.10
2018-05-17T07:16:42.860Z,64.60
2018-05-17T07:19:10.789Z,64.20
2018-05-17T07:21:38.317Z,63.40
2018-05-17T07:24:05.928Z,62.80
2018-05-17T07:26:33.475Z,63.50
2018-05-17T07:29:01.054Z,63.40
2018-05-17T07:31:28.684Z,63.10
2018-05-17T07:33:57.157Z,62.70
2018-05-17T07:36:25.531Z,63.70
2018-05-17T07:38:53.180Z,63.30
2018-05-17T07:41:20.739Z,62.90
2018-05-17T07:43:48.309Z,63.50
2018-05-17T07:46:15.854Z,62.90
2018-05-17T07:48:43.526Z,63.10
2018-05-17T07:51:11.067Z,63.30
2018-05-17T07:53:38.672Z,63.30
2018-05-17T07:56:06.985Z,64.00
2018-05-17T07:58:34.528Z,64.00
2018-05-17T08:01:07.165Z,64.60
2018-05-17T08:03:35.687Z,64.80
2018-05-17T08:06:06.774Z,65.20
2018-05-17T08:08:35.080Z,65.10
2018-05-17T08:11:02.650Z,65.10
2018-05-17T08:13:31.033Z,65.40
2018-05-17T08:15:59.370Z,65.00
2018-05-17T08:18:27.433Z,64.90
2018-05-17T08:20:55.006Z,65.80
2018-05-17T08:23:22.563Z,66.20
2018-05-17T08:25:50.146Z,66.00
2018-05-17T08:28:17.723Z,66.20
2018-05-17T08:30:46.052Z,65.20
2018-05-17T08:33:13.586Z,65.20
2018-05-17T08:35:41.212Z,66.00
2018-05-17T08:38:08.776Z,65.30
2018-05-17T08:40:36.309Z,65.30
2018-05-17T08:43:03.909Z,64.80
2018-05-17T08:45:32.393Z,63.90
2018-05-17T08:47:59.872Z,63.90
2018-05-17T08:50:27.602Z,64.20
2018-05-17T08:52:55.160Z,63.20
2018-05-17T08:55:22.736Z,63.00
2018-05-17T08:57:51.054Z,64.50
2018-05-17T09:00:18.693Z,64.30
2018-05-17T09:02:46.300Z,64.00
2018-05-17T09:05:14.925Z,63.60
2018-05-17T09:07:43.297Z,63.80
2018-05-17T09:10:11.611Z,64.60
2018-05-17T09:12:39.200Z,64.40
2018-05-17T09:15:06.794Z,65.10
2018-05-17T09:17:34.637Z,65.30
2018-05-17T09:20:06.039Z,65.80
2018-05-17T09:22:33.587Z,65.60
2018-05-17T09:25:01.598Z,65.80
2018-05-17T09:27:29.143Z,64.70
2018-05-17T09:29:56.780Z,64.80
2018-05-17T09:32:24.651Z,64.90
2018-05-17T09:34:52.217Z,64.20
2018-05-17T09:37:19.770Z,63.90
2018-05-17T09:39:47.333Z,61.60
2018-05-17T09:42:14.881Z,61.70
2018-05-17T09:44:43.316Z,61.90
2018-05-17T09:47:10.992Z,61.90
2018-05-17T09:49:39.334Z,61.30
2018-05-17T09:52:07.025Z,61.20
2018-05-17T09:54:34.606Z,59.80
2018-05-17T09:57:02.194Z,59.50
2018-05-17T09:59:29.721Z,59.60
2018-05-17T10:01:57.302Z,58.60
2018-05-17T10:04:25.783Z,57.90
2018-05-17T10:06:54.174Z,56.40
2018-05-17T10:09:21.847Z,56.40
2018-05-17T10:11:51.493Z,56.30
2018-05-17T10:14:19.309Z,57.60
2018-05-17T10:16:47.801Z,58.60
2018-05-17T10:19:15.408Z,58.50
2018-05-17T10:21:43.113Z,59.00
2018-05-17T10:24:10.753Z,59.80
2018-05-17T10:26:38.387Z,59.80
2018-05-17T10:29:06.168Z,61.10
2018-05-17T10:31:33.797Z,62.10
2018-05-17T10:34:01.501Z,61.90
2018-05-17T10:36:29.812Z,61.10
2018-05-17T10:38:57.339Z,61.00
2018-05-17T10:41:25.021Z,60.10
2018-05-17T10:43:53.448Z,59.90
2018-05-17T10:46:21.027Z,59.80
2018-05-17T10:48:48.567Z,60.20
2018-05-17T10:51:16.131Z,59.70
2018-05-17T10:53:43.667Z,59.70
2018-05-17T10:56:11.367Z,59.60
2018-05-17T10:58:39.292Z,59.30
2018-05-17T11:01:06.968Z,58.10
2018-05-17T11:03:34.518Z,56.70
2018-05-17T11:06:02.091Z,54.90
2018-05-17T11:08:30.153Z,54.70
2018-05-17T11:10:57.718Z,53.30
2018-05-17T11:13:25.357Z,52.70
2018-05-17T11:15:52.920Z,53.30
2018-05-17T11:18:20.677Z,54.00
2018-05-17T11:20:49.008Z,53.40
2018-05-17T11:23:16.626Z,53.50
2018-05-17T11:25:45.242Z,53.70
2018-05-17T11:28:12.971Z,53.70
2018-05-17T11:30:41.268Z,53.70
2018-05-17T11:33:09.041Z,53.60
2018-05-17T11:35:36.590Z,54.00
2018-05-17T11:38:04.113Z,52.40
2018-05-17T11:40:31.709Z,50.80
2018-05-17T11:42:59.321Z,51.60
2018-05-17T11:45:27.102Z,51.50
2018-05-17T11:47:54.659Z,51.40
2018-05-17T11:50:22.524Z,51.10
2018-05-17T11:52:50.966Z,51.00
2018-05-17T11:55:18.558Z,51.00
2018-05-17T11:57:46.243Z,51.20
2018-05-17T12:00:14.883Z,49.20
2018-05-17T12:02:42.511Z,49.20
2018-05-17T12:05:10.260Z,49.20
2018-05-17T12:07:38.677Z,51.30
2018-05-17T12:10:06.263Z,51.20
2018-05-17T12:12:33.849Z,51.90
2018-05-17T12:15:01.398Z,53.30
2018-05-17T12:17:28.924Z,54.10
2018-05-17T12:19:56.638Z,55.10
2018-05-17T12:22:25.024Z,60.90
2018-05-17T12:24:53.351Z,63.60
2018-05-17T12:27:20.943Z,63.50
2018-05-17T12:29:48.557Z,67.10
2018-05-17T12:32:16.245Z,67.90
2018-05-17T12:34:44.048Z,68.40
2018-05-17T12:37:12.530Z,68.80
2018-05-17T12:39:40.038Z,68.60
2018-05-17T12:42:08.000Z,68.60
2018-05-17T12:44:35.582Z,67.80
2018-05-17T12:47:04.213Z,67.40
2018-05-17T12:49:31.828Z,66.30
2018-05-17T12:51:59.406Z,66.30
2018-05-17T12:54:26.960Z,64.70
2018-05-17T12:56:55.278Z,64.70
2018-05-17T12:59:23.420Z,64.30
2018-05-17T13:01:52.402Z,63.50
2018-05-17T13:04:20.017Z,62.80
2018-05-17T13:06:47.671Z,62.80
2018-05-17T13:09:16.229Z,61.90
2018-05-17T13:11:43.912Z,61.90
2018-05-17T13:14:12.357Z,61.80
2018-05-17T13:16:39.931Z,61.90
2018-05-17T13:19:07.862Z,61.50
2018-05-17T13:21:35.413Z,61.40
2018-05-17T13:24:02.961Z,61.20
2018-05-17T13:26:30.562Z,61.20
2018-05-17T13:28:58.106Z,61.30
2018-05-17T13:31:26.179Z,61.30
2018-05-17T13:33:53.715Z,61.50
2018-05-17T13:36:21.305Z,61.20
2018-05-17T13:38:48.839Z,60.90
2018-05-17T13:41:16.491Z,61.80
2018-05-17T13:43:44.069Z,60.50
2018-05-17T13:46:11.663Z,58.80
2018-05-17T13:48:39.357Z,58.40
2018-05-17T13:51:07.755Z,58.50
2018-05-17T13:53:35.291Z,58.50
2018-05-17T13:56:03.633Z,60.50
2018-05-17T13:58:31.198Z,60.40
2018-05-17T14:00:58.796Z,60.70
2018-05-17T14:03:28.180Z,61.50
2018-05-17T14:05:55.748Z,61.50
2018-05-17T14:08:23.440Z,62.60
2018-05-17T14:10:51.176Z,64.30
2018-05-17T14:13:18.759Z,65.90
2018-05-17T14:15:46.393Z,66.40
2018-05-17T14:18:13.938Z,67.50
2018-05-17T14:20:41.603Z,69.60
2018-05-17T14:23:09.181Z,70.40
2018-05-17T14:25:37.620Z,74.50
2018-05-17T14:28:05.311Z,74.40
2018-05-17T14:30:33.770Z,78.50
2018-05-17T14:33:01.357Z,78.50
2018-05-17T14:35:28.891Z,78.40
2018-05-17T14:37:56.452Z,78.80
2018-05-17T14:40:24.106Z,80.20
2018-05-17T14:42:51.795Z,81.20
2018-05-17T14:53:59.601Z,84.60
